Time;durP1;ratioP1;P1;durP2;ratioP2;P2;SDS_P1;SDS_P2;PMS_P1;PMS_P2;Temp;Humidity;BMP_temperature;BMP_pressure;BME280_temperature;BME280_humidity;BME280_pressure;Samples;Min_cycle;Max_cycle;Signal;HPM_P1;HPM_P2
2022/12/30 00:02:14;;;;;;;;;;;;;;;8.76;97.62;99785.16;4877495;29;19958;-90
2022/12/30 00:04:41;;;;;;;;;;;;;;;8.71;97.89;99776.75;4905915;29;19930;-89
2022/12/30 00:07:08;;;;;;;;;;;;;;;8.72;97.81;99780.22;4904965;29;19924;-91
2022/12/30 00:09:34;;;;;;;;;;;;;;;8.67;96.73;99783.25;4870326;29;19923;-90
2022/12/30 00:33:06;;;;;;;;;;;;;;;8.64;97.07;99780.84;4917438;29;20018;-90
2022/12/30 00:33:06;;;;;;;;;;;;;;;8.64;96.88;99792.28;4873580;29;19962;-90
2022/12/30 00:34:41;;;;;;;;;;;;;;;8.59;97.31;99805.03;4884957;29;20264;-91
2022/12/30 00:37:07;;;;;;;;;;;;;;;8.57;97.36;99811.41;4877351;29;20636;-91
2022/12/30 00:39:34;;;;;;;;;;;;;;;8.58;97.03;99805.19;4876458;29;19988;-91
2022/12/30 00:44:46;;;;;;;;;;;;;;;8.59;96.98;99815.63;4844608;29;20014;-91
2022/12/30 00:47:12;;;;;;;;;;;;;;;8.60;96.92;99811.16;4905392;29;19982;-92
2022/12/30 00:57:56;;;;;;;;;;;;;;;8.54;95.53;99814.31;4887775;29;20889;-91
2022/12/30 01:00:22;;;;;;;;;;;;;;;8.62;95.29;99809.25;4903874;29;20295;-90
2022/12/30 01:02:49;;;;;;;;;;;;;;;8.72;94.88;99809.34;4902335;29;19927;-91
2022/12/30 01:05:16;;;;;;;;;;;;;;;8.62;94.43;99810.09;4900098;29;19931;-91
2022/12/30 01:07:42;;;;;;;;;;;;;;;8.61;94.40;99811.06;4886208;29;19923;-91
2022/12/30 01:10:10;;;;;;;;;;;;;;;8.62;93.75;99820.66;4922215;29;20378;-89
2022/12/30 01:12:37;;;;;;;;;;;;;;;8.58;93.66;99821.06;4872815;29;20009;-90
2022/12/30 01:15:03;;;;;;;;;;;;;;;8.53;93.43;99817.94;4906817;29;20359;-90
2022/12/30 01:17:32;;;;;;;;;;;;;;;8.55;93.24;99824.81;4905808;29;20018;-91
2022/12/30 01:19:58;;;;;;;;;;;;;;;8.51;92.49;99822.50;4893542;29;19929;-91
2022/12/30 01:22:25;;;;;;;;;;;;;;;8.44;92.79;99828.28;4916288;29;19923;-90
2022/12/30 01:24:51;;;;;;;;;;;;;;;8.43;92.56;99839.84;4916532;28;20282;-90
2022/12/30 01:27:18;;;;;;;;;;;;;;;8.36;92.46;99843.06;4892157;29;20009;-91
2022/12/30 01:29:45;;;;;;;;;;;;;;;8.36;92.27;99845.72;4891780;29;19929;-91
2022/12/30 01:32:15;;;;;;;;;;;;;;;8.33;92.11;99844.16;4877884;29;19927;-90
2022/12/30 01:34:42;;;;;;;;;;;;;;;8.38;92.20;99854.38;4902104;29;19923;-90
2022/12/30 01:37:09;;;;;;;;;;;;;;;8.25;92.02;99857.13;4913644;29;20344;-91
2022/12/30 01:39:36;;;;;;;;;;;;;;;8.23;91.84;99851.13;4904852;29;19935;-91
2022/12/30 01:42:02;;;;;;;;;;;;;;;8.22;91.96;99858.22;4920170;29;19935;-90
2022/12/30 01:44:44;;;;;;;;;;;;;;;8.22;91.55;99875.91;4909417;29;19922;-90
2022/12/30 01:47:12;;;;;;;;;;;;;;;8.21;91.42;99861.81;4896642;29;19923;-89
2022/12/30 01:49:39;;;;;;;;;;;;;;;8.14;91.35;99865.06;4878455;29;19935;-90
2022/12/30 01:52:06;;;;;;;;;;;;;;;8.04;91.15;99871.06;4916762;29;19933;-90
2022/12/30 01:54:33;;;;;;;;;;;;;;;7.97;91.45;99880.44;4912373;29;20394;-90
2022/12/30 01:56:59;;;;;;;;;;;;;;;7.93;91.23;99888.72;4907398;29;20303;-91
2022/12/30 01:59:27;;;;;;;;;;;;;;;7.91;91.18;99886.22;4901485;29;20002;-90
2022/12/30 02:01:53;;;;;;;;;;;;;;;7.87;91.44;99892.69;4901081;29;19978;-90
2022/12/30 02:04:20;;;;;;;;;;;;;;;7.85;91.69;99891.94;4886953;29;20358;-91
2022/12/30 02:06:47;;;;;;;;;;;;;;;7.80;91.22;99880.88;4903652;29;19927;-89
2022/12/30 02:09:14;;;;;;;;;;;;;;;7.82;90.60;99885.09;4891364;29;19970;-90
2022/12/30 02:11:40;;;;;;;;;;;;;;;7.82;90.89;99884.25;4915882;29;19931;-91
2022/12/30 02:14:07;;;;;;;;;;;;;;;7.72;90.59;99886.75;4920303;29;19933;-89
2022/12/30 02:16:35;;;;;;;;;;;;;;;7.70;90.70;99891.31;4872322;29;19964;-89
2022/12/30 02:19:08;;;;;;;;;;;;;;;7.71;90.55;99900.94;4908728;29;20275;-89
2022/12/30 02:21:38;;;;;;;;;;;;;;;7.61;90.67;99906.06;4905080;29;19927;-90
2022/12/30 02:24:04;;;;;;;;;;;;;;;7.64;90.75;99906.81;4902955;29;19987;-90
2022/12/30 02:26:49;;;;;;;;;;;;;;;7.65;90.37;99898.75;4919482;29;19923;-89
2022/12/30 02:29:28;;;;;;;;;;;;;;;7.55;89.95;99901.22;4897019;29;20291;-90
2022/12/30 02:32:08;;;;;;;;;;;;;;;7.57;90.14;99901.97;4880307;29;19923;-90
2022/12/30 02:34:34;;;;;;;;;;;;;;;7.55;89.96;99898.59;4822160;29;19923;-92
2022/12/30 02:37:21;;;;;;;;;;;;;;;7.50;89.80;99905.16;4895181;29;19995;-81
2022/12/30 02:40:07;;;;;;;;;;;;;;;7.50;90.42;99924.50;4848205;29;19927;-81
2022/12/30 02:45:24;;;;;;;;;;;;;;;7.47;91.16;99935.31;4857816;29;19931;-81
2022/12/30 02:47:52;;;;;;;;;;;;;;;7.41;90.48;99927.00;4903468;29;20346;-81
2022/12/30 02:53:05;;;;;;;;;;;;;;;7.49;89.78;99911.44;4875163;29;19927;-81
2022/12/30 02:55:31;;;;;;;;;;;;;;;7.56;89.58;99912.66;4899242;29;19923;-83
2022/12/30 02:57:58;;;;;;;;;;;;;;;7.53;89.61;99926.06;4888762;29;19927;-81
2022/12/30 03:06:10;;;;;;;;;;;;;;;7.39;91.04;99946.44;4875271;29;20399;-80
2022/12/30 03:08:36;;;;;;;;;;;;;;;7.31;90.18;99940.03;4850456;29;19927;-81
2022/12/30 03:11:13;;;;;;;;;;;;;;;7.22;88.87;99932.78;4916500;29;22574;-81
2022/12/30 03:13:45;;;;;;;;;;;;;;;7.21;88.56;99928.47;4889159;29;19923;-81
2022/12/30 03:16:14;;;;;;;;;;;;;;;7.16;89.12;99931.44;4913838;29;19982;-81
2022/12/30 03:18:40;;;;;;;;;;;;;;;7.17;88.46;99941.03;4882678;29;19930;-81
2022/12/30 03:21:07;;;;;;;;;;;;;;;7.16;89.48;99936.72;4917413;29;19923;-81
2022/12/30 03:29:05;;;;;;;;;;;;;;;7.10;89.31;99931.91;4846696;29;19923;-81
2022/12/30 03:31:32;;;;;;;;;;;;;;;7.04;88.84;99929.69;4880342;29;19923;-81
2022/12/30 03:33:58;;;;;;;;;;;;;;;7.02;88.80;99928.94;4891319;29;19930;-81
2022/12/30 03:36:25;;;;;;;;;;;;;;;7.05;88.58;99923.47;4905523;29;19947;-81
2022/12/30 03:38:57;;;;;;;;;;;;;;;6.98;88.95;99924.84;4891838;29;20009;-81
2022/12/30 03:41:23;;;;;;;;;;;;;;;6.99;89.09;99927.38;4883778;29;19979;-81
2022/12/30 03:43:50;;;;;;;;;;;;;;;6.91;89.20;99927.91;4909910;29;19923;-82
2022/12/30 03:46:20;;;;;;;;;;;;;;;6.91;88.88;99921.81;4888938;29;20014;-82
2022/12/30 03:48:47;;;;;;;;;;;;;;;6.94;88.74;99917.13;4830322;29;19982;-81
2022/12/30 03:51:13;;;;;;;;;;;;;;;6.92;88.88;99918.19;4885963;29;20014;-81
2022/12/30 03:53:40;;;;;;;;;;;;;;;6.98;89.25;99923.06;4885280;29;19927;-81
2022/12/30 03:56:06;;;;;;;;;;;;;;;7.03;90.79;99926.22;4903460;29;19930;-81
2022/12/30 03:58:33;;;;;;;;;;;;;;;7.04;90.23;99927.88;4893842;29;19930;-81
2022/12/30 04:01:00;;;;;;;;;;;;;;;6.92;89.36;99934.03;4886092;29;19931;-82
2022/12/30 04:03:26;;;;;;;;;;;;;;;6.94;89.17;99937.41;4903963;29;19942;-81
2022/12/30 04:05:53;;;;;;;;;;;;;;;6.87;89.25;99934.38;4898858;29;19935;-81
2022/12/30 04:08:21;;;;;;;;;;;;;;;6.82;88.96;99933.00;4892658;29;20418;-81
2022/12/30 04:10:47;;;;;;;;;;;;;;;6.95;89.26;99939.97;4888057;29;20018;-80
2022/12/30 04:13:14;;;;;;;;;;;;;;;6.88;90.27;99938.69;4886472;29;20474;-81
2022/12/30 04:15:40;;;;;;;;;;;;;;;6.82;89.02;99936.50;4921747;29;19966;-81
2022/12/30 04:18:07;;;;;;;;;;;;;;;6.78;88.65;99936.84;4891049;29;20407;-81
2022/12/30 04:20:34;;;;;;;;;;;;;;;6.68;87.86;99934.00;4874663;29;19974;-81
2022/12/30 04:23:00;;;;;;;;;;;;;;;6.61;87.52;99935.38;4877094;29;19923;-81
2022/12/30 04:25:27;;;;;;;;;;;;;;;6.57;87.85;99937.41;4865429;29;20029;-81
2022/12/30 04:27:54;;;;;;;;;;;;;;;6.68;88.53;99940.13;4902600;29;19931;-82
2022/12/30 04:30:20;;;;;;;;;;;;;;;6.65;88.04;99942.97;4906539;29;19954;-80
2022/12/30 04:32:47;;;;;;;;;;;;;;;6.74;89.18;99944.97;4913585;29;19926;-81
2022/12/30 04:35:13;;;;;;;;;;;;;;;6.59;88.84;99939.91;4905465;29;20351;-81
2022/12/30 04:37:40;;;;;;;;;;;;;;;6.56;88.35;99937.50;4917220;29;19978;-81
2022/12/30 04:40:07;;;;;;;;;;;;;;;6.51;87.33;99936.03;4876641;29;20375;-81
2022/12/30 04:42:33;;;;;;;;;;;;;;;6.38;87.72;99942.25;4900287;29;19955;-81
2022/12/30 04:45:00;;;;;;;;;;;;;;;6.32;88.03;99934.78;4918492;29;19957;-81
2022/12/30 04:47:26;;;;;;;;;;;;;;;6.31;88.26;99923.41;4886014;29;19953;-81
2022/12/30 04:49:53;;;;;;;;;;;;;;;6.42;88.56;99926.13;4903008;29;19930;-81
2022/12/30 04:52:20;;;;;;;;;;;;;;;6.51;89.54;99928.13;4890626;29;19922;-81
2022/12/30 04:54:46;;;;;;;;;;;;;;;6.50;90.56;99923.78;4895280;29;19966;-84
2022/12/30 04:57:13;;;;;;;;;;;;;;;6.51;90.72;99925.50;4901453;29;19927;-81
2022/12/30 04:59:39;;;;;;;;;;;;;;;6.56;89.86;99940.97;4916700;29;19923;-81
2022/12/30 05:02:06;;;;;;;;;;;;;;;6.60;89.40;99938.97;4902328;29;20426;-81
2022/12/30 05:04:33;;;;;;;;;;;;;;;6.61;89.89;99952.03;4892027;29;20287;-80
2022/12/30 05:06:59;;;;;;;;;;;;;;;6.51;90.18;99953.63;4888154;29;20010;-81
2022/12/30 05:09:26;;;;;;;;;;;;;;;6.47;88.81;99950.38;4904208;29;19931;-81
2022/12/30 05:11:52;;;;;;;;;;;;;;;6.40;86.87;99946.47;4920021;29;20008;-81
2022/12/30 05:14:19;;;;;;;;;;;;;;;6.29;87.10;99949.03;4905620;29;19930;-83
2022/12/30 05:16:45;;;;;;;;;;;;;;;6.33;87.28;99953.13;4904982;29;20381;-80
2022/12/30 05:19:12;;;;;;;;;;;;;;;6.35;87.82;99955.66;4889489;29;19974;-81
2022/12/30 05:21:38;;;;;;;;;;;;;;;6.34;89.01;99952.19;4919757;29;20010;-81
2022/12/30 05:26:50;;;;;;;;;;;;;;;6.52;89.07;99956.19;4890596;29;19983;-81
2022/12/30 05:29:17;;;;;;;;;;;;;;;6.58;89.97;99943.50;4912732;29;20359;-81
2022/12/30 05:31:44;;;;;;;;;;;;;;;6.53;90.31;99942.03;4894823;29;20375;-81
2022/12/30 05:34:10;;;;;;;;;;;;;;;6.46;90.52;99959.25;4915047;29;19930;-81
2022/12/30 05:36:37;;;;;;;;;;;;;;;6.50;90.27;99954.59;4899258;29;19927;-81
2022/12/30 05:39:04;;;;;;;;;;;;;;;6.55;89.21;99955.13;4870400;29;20424;-81
2022/12/30 05:41:30;;;;;;;;;;;;;;;6.49;89.72;99948.50;4906353;29;19927;-81
2022/12/30 05:43:57;;;;;;;;;;;;;;;6.53;91.14;99963.13;4900093;29;19923;-81
2022/12/30 05:46:24;;;;;;;;;;;;;;;6.64;91.48;99961.53;4904517;29;19974;-81
2022/12/30 05:48:50;;;;;;;;;;;;;;;6.56;89.69;99964.72;4891682;29;19955;-81
2022/12/30 05:51:17;;;;;;;;;;;;;;;6.51;89.44;99961.56;4875352;29;20335;-81
2022/12/30 05:53:43;;;;;;;;;;;;;;;6.48;90.13;99972.31;4889916;29;19986;-80
2022/12/30 05:56:10;;;;;;;;;;;;;;;6.51;89.81;99957.16;4897136;29;19923;-80
2022/12/30 05:58:37;;;;;;;;;;;;;;;6.46;89.49;99958.41;4892557;29;19923;-81
2022/12/30 06:01:03;;;;;;;;;;;;;;;6.41;90.16;99960.50;4914406;29;19982;-81
2022/12/30 06:03:30;;;;;;;;;;;;;;;6.40;90.07;99959.66;4873504;29;19923;-81
2022/12/30 06:05:57;;;;;;;;;;;;;;;6.40;90.30;99967.59;4914067;29;20342;-81
2022/12/30 06:08:24;;;;;;;;;;;;;;;6.36;90.22;99966.13;4881555;29;19961;-81
2022/12/30 06:10:51;;;;;;;;;;;;;;;6.40;90.55;99966.75;4900368;29;19931;-81
2022/12/30 06:13:17;;;;;;;;;;;;;;;6.40;90.55;99969.38;4916348;29;19937;-83
2022/12/30 06:15:44;;;;;;;;;;;;;;;6.39;90.22;99973.81;4901771;29;19930;-80
2022/12/30 06:18:10;;;;;;;;;;;;;;;6.39;90.54;99979.09;4898966;29;19923;-81
2022/12/30 06:20:37;;;;;;;;;;;;;;;6.39;89.41;99973.81;4889921;29;19923;-80
2022/12/30 06:23:04;;;;;;;;;;;;;;;6.34;89.96;99977.72;4901281;29;19930;-81
2022/12/30 06:25:31;;;;;;;;;;;;;;;6.38;89.50;99985.31;4902542;29;19923;-81
2022/12/30 06:27:58;;;;;;;;;;;;;;;6.30;89.50;99980.56;4891382;29;19931;-80
2022/12/30 06:30:25;;;;;;;;;;;;;;;6.28;89.54;99985.09;4884926;29;20367;-80
2022/12/30 06:32:58;;;;;;;;;;;;;;;6.39;89.62;99986.16;4901224;29;20442;-82
2022/12/30 06:35:24;;;;;;;;;;;;;;;6.32;89.73;99976.97;4883266;29;20294;-81
2022/12/30 06:37:51;;;;;;;;;;;;;;;6.28;88.83;99979.84;4890164;29;19927;-82
2022/12/30 06:40:18;;;;;;;;;;;;;;;6.26;88.95;99978.25;4876685;29;19972;-81
2022/12/30 06:42:44;;;;;;;;;;;;;;;6.24;88.85;99972.22;4907361;29;19953;-83
2022/12/30 06:45:11;;;;;;;;;;;;;;;6.17;88.62;99990.25;4915625;29;19954;-85
2022/12/30 06:47:37;;;;;;;;;;;;;;;6.16;88.26;99982.47;4870221;29;20098;-83
2022/12/30 06:50:04;;;;;;;;;;;;;;;6.18;88.84;99984.06;4866934;29;20015;-82
2022/12/30 06:52:31;;;;;;;;;;;;;;;6.15;88.75;99981.59;4880036;29;19926;-82
2022/12/30 06:54:58;;;;;;;;;;;;;;;6.09;88.68;99980.22;4860584;29;19927;-82
2022/12/30 06:57:24;;;;;;;;;;;;;;;6.19;88.31;99972.53;4899676;29;20930;-82
2022/12/30 06:59:52;;;;;;;;;;;;;;;6.17;88.77;99966.53;4874913;29;19934;-82
2022/12/30 07:02:18;;;;;;;;;;;;;;;6.04;88.94;99963.03;4874392;29;19927;-82
2022/12/30 07:04:45;;;;;;;;;;;;;;;6.03;88.39;99959.56;4869065;29;19934;-82
2022/12/30 07:07:12;;;;;;;;;;;;;;;6.03;87.70;99971.88;4866930;29;19931;-82
2022/12/30 07:09:38;;;;;;;;;;;;;;;6.06;88.20;99961.97;4878635;29;19927;-82
2022/12/30 07:12:05;;;;;;;;;;;;;;;5.99;88.33;99963.34;4887010;29;19938;-83
2022/12/30 07:14:32;;;;;;;;;;;;;;;6.05;88.75;99965.56;4908845;29;19923;-82
2022/12/30 07:16:58;;;;;;;;;;;;;;;6.10;89.90;99962.59;4888114;29;19930;-82
2022/12/30 07:19:25;;;;;;;;;;;;;;;6.09;88.86;99974.13;4870982;29;20895;-82
2022/12/30 07:21:52;;;;;;;;;;;;;;;5.96;87.96;99978.53;4871719;29;20018;-82
2022/12/30 07:24:18;;;;;;;;;;;;;;;5.91;87.24;99981.44;4906431;29;19922;-82
2022/12/30 07:26:45;;;;;;;;;;;;;;;5.89;87.75;99970.16;4897848;29;19955;-82
2022/12/30 07:29:12;;;;;;;;;;;;;;;5.99;89.79;99980.94;4891062;29;19975;-82
2022/12/30 07:31:39;;;;;;;;;;;;;;;5.84;87.41;99972.25;4874639;29;19923;-82
2022/12/30 07:34:06;;;;;;;;;;;;;;;5.93;86.88;99982.19;4904000;29;19927;-82
2022/12/30 07:36:32;;;;;;;;;;;;;;;5.84;87.22;99988.06;4891151;29;19923;-82
2022/12/30 07:38:59;;;;;;;;;;;;;;;5.77;87.71;99989.41;4907480;29;19923;-83
2022/12/30 07:41:26;;;;;;;;;;;;;;;5.83;87.71;99986.38;4907322;29;20303;-83
2022/12/30 07:43:53;;;;;;;;;;;;;;;5.83;87.97;99989.84;4872854;29;19963;-82
2022/12/30 07:46:19;;;;;;;;;;;;;;;5.85;87.73;99987.97;4919212;29;20397;-81
2022/12/30 07:48:46;;;;;;;;;;;;;;;5.94;88.57;99981.25;4901702;29;20350;-82
2022/12/30 07:51:13;;;;;;;;;;;;;;;5.90;89.31;99977.09;4891677;29;19979;-82
2022/12/30 07:53:40;;;;;;;;;;;;;;;5.99;89.45;99976.53;4893956;29;19983;-82
2022/12/30 07:56:07;;;;;;;;;;;;;;;6.01;89.67;99982.53;4887669;29;20034;-82
2022/12/30 07:58:34;;;;;;;;;;;;;;;5.81;86.86;99970.66;4903157;29;19927;-81
2022/12/30 08:01:02;;;;;;;;;;;;;;;5.75;87.04;99972.84;4890467;29;19931;-85
2022/12/30 08:03:29;;;;;;;;;;;;;;;5.74;87.25;99973.81;4890101;29;19970;-82
2022/12/30 08:05:56;;;;;;;;;;;;;;;5.71;87.93;99974.00;4904406;29;19951;-82
2022/12/30 08:08:22;;;;;;;;;;;;;;;5.74;88.23;99971.16;4907447;29;20030;-83
2022/12/30 08:10:55;;;;;;;;;;;;;;;5.78;88.23;99964.75;4903669;29;19927;-82
2022/12/30 08:13:23;;;;;;;;;;;;;;;5.97;89.39;99961.75;4878286;29;19923;-83
2022/12/30 08:15:50;;;;;;;;;;;;;;;5.90;89.11;99960.44;4922576;28;19923;-82
2022/12/30 08:18:17;;;;;;;;;;;;;;;5.89;89.33;99964.88;4899653;29;19927;-82
2022/12/30 08:20:43;;;;;;;;;;;;;;;5.85;88.28;99956.34;4907363;29;20283;-84
2022/12/30 08:23:10;;;;;;;;;;;;;;;5.84;88.88;99956.44;4862136;29;19922;-82
2022/12/30 08:25:37;;;;;;;;;;;;;;;5.75;88.81;99947.38;4911641;29;19978;-82
2022/12/30 08:28:04;;;;;;;;;;;;;;;5.76;88.41;99948.19;4903732;29;20038;-82
2022/12/30 08:30:30;;;;;;;;;;;;;;;5.80;88.77;99945.25;4889090;29;20290;-82
2022/12/30 08:32:57;;;;;;;;;;;;;;;5.79;88.74;99946.19;4905900;29;19923;-82
2022/12/30 08:35:23;;;;;;;;;;;;;;;5.78;89.47;99949.78;4899445;29;20379;-82
2022/12/30 08:37:50;;;;;;;;;;;;;;;5.90;89.98;99940.19;4878992;29;19931;-82
2022/12/30 08:40:16;;;;;;;;;;;;;;;5.88;90.01;99927.13;4879060;29;20371;-81
2022/12/30 08:42:43;;;;;;;;;;;;;;;6.00;89.21;99927.28;4893341;29;19923;-82
2022/12/30 08:45:09;;;;;;;;;;;;;;;5.96;89.34;99925.81;4902387;29;19927;-82
2022/12/30 08:47:36;;;;;;;;;;;;;;;6.01;89.92;99926.34;4905956;29;19923;-81
2022/12/30 08:50:03;;;;;;;;;;;;;;;6.06;90.49;99926.88;4902572;29;20021;-81
2022/12/30 08:52:30;;;;;;;;;;;;;;;6.14;91.47;99915.81;4876750;29;20009;-81
2022/12/30 08:54:57;;;;;;;;;;;;;;;6.24;91.88;99916.84;4920790;29;20278;-81
2022/12/30 08:57:23;;;;;;;;;;;;;;;6.22;92.13;99914.31;4901844;29;19931;-82
2022/12/30 08:59:50;;;;;;;;;;;;;;;6.21;92.63;99915.28;4894323;29;20299;-83
2022/12/30 09:02:16;;;;;;;;;;;;;;;6.35;92.53;99906.41;4890668;29;19923;-82
2022/12/30 09:04:43;;;;;;;;;;;;;;;6.55;95.13;99897.09;4884079;29;19930;-83
2022/12/30 09:07:10;;;;;;;;;;;;;;;6.51;92.73;99893.84;4900716;29;19938;-83
2022/12/30 09:09:56;;;;;;;;;;;;;;;6.60;92.86;99900.25;4869373;29;19951;-82
2022/12/30 09:12:23;;;;;;;;;;;;;;;6.63;92.86;99891.25;4889998;29;19923;-82
2022/12/30 09:14:50;;;;;;;;;;;;;;;6.66;92.96;99891.88;4893819;29;20017;-81
2022/12/30 09:17:17;;;;;;;;;;;;;;;6.66;93.12;99881.31;4889285;29;19930;-81
2022/12/30 09:19:46;;;;;;;;;;;;;;;6.72;92.78;99885.34;4892022;29;19948;-82
2022/12/30 09:22:12;;;;;;;;;;;;;;;6.67;93.48;99883.03;4890544;29;19927;-82
2022/12/30 09:24:39;;;;;;;;;;;;;;;6.70;92.76;99882.81;4906324;29;20339;-82
2022/12/30 09:27:05;;;;;;;;;;;;;;;6.76;92.33;99893.88;4917252;29;19926;-82
2022/12/30 09:29:32;;;;;;;;;;;;;;;6.81;92.35;99879.38;4870391;29;20021;-84
2022/12/30 09:31:58;;;;;;;;;;;;;;;6.86;92.27;99879.06;4906007;29;19935;-82
2022/12/30 09:34:25;;;;;;;;;;;;;;;6.91;92.46;99871.66;4894285;29;20343;-82
2022/12/30 09:36:52;;;;;;;;;;;;;;;6.93;92.58;99877.66;4917825;29;20038;-81
2022/12/30 09:39:30;;;;;;;;;;;;;;;7.04;92.03;99883.00;4876652;29;20302;-80
2022/12/30 09:44:43;;;;;;;;;;;;;;;7.10;92.60;99869.34;4874442;29;20331;-82
2022/12/30 09:47:13;;;;;;;;;;;;;;;7.15;92.04;99863.75;4902850;29;19950;-82
2022/12/30 09:49:42;;;;;;;;;;;;;;;7.17;91.83;99853.88;4898658;29;19966;-83
2022/12/30 09:52:09;;;;;;;;;;;;;;;7.22;91.21;99850.91;4889579;29;19923;-83
2022/12/30 09:54:35;;;;;;;;;;;;;;;7.24;91.51;99849.00;4909096;29;20390;-84
2022/12/30 09:57:30;;;;;;;;;;;;;;;7.24;91.78;99836.63;4892997;29;19930;-82
2022/12/30 09:59:51;;;;;;;;;;;;;;;7.27;91.85;99835.56;4881690;29;20010;-83
2022/12/30 10:02:28;;;;;;;;;;;;;;;7.32;91.29;99831.63;4899081;29;19934;-83
2022/12/30 10:04:55;;;;;;;;;;;;;;;7.38;91.24;99825.06;4900608;29;19923;-83
2022/12/30 10:07:34;;;;;;;;;;;;;;;7.44;90.85;99821.94;4888190;29;19927;-83
2022/12/30 10:10:22;;;;;;;;;;;;;;;7.51;90.66;99819.69;4878067;29;19923;-83
2022/12/30 10:12:51;;;;;;;;;;;;;;;7.55;90.58;99802.63;4867392;29;19929;-83
2022/12/30 10:15:26;;;;;;;;;;;;;;;7.60;90.62;99801.31;4876051;29;19923;-83
2022/12/30 10:17:56;;;;;;;;;;;;;;;7.65;90.53;99805.41;4844351;29;19923;-82
2022/12/30 10:20:25;;;;;;;;;;;;;;;7.66;90.32;99796.50;4914606;29;19929;-83
2022/12/30 10:23:00;;;;;;;;;;;;;;;7.72;90.26;99791.59;4897977;29;19945;-85
2022/12/30 10:25:27;;;;;;;;;;;;;;;7.74;90.58;99784.41;4883426;29;19923;-83
2022/12/30 10:27:54;;;;;;;;;;;;;;;7.78;90.75;99777.06;4905063;29;20366;-83
2022/12/30 10:30:33;;;;;;;;;;;;;;;7.81;90.72;99779.47;4892920;29;19927;-85
2022/12/30 10:33:01;;;;;;;;;;;;;;;7.85;90.75;99780.91;4873062;29;20282;-83
2022/12/30 10:35:31;;;;;;;;;;;;;;;7.88;90.52;99778.03;4890202;29;19927;-83
2022/12/30 10:38:18;;;;;;;;;;;;;;;7.95;92.34;99771.31;4905354;29;19928;-83
2022/12/30 10:40:57;;;;;;;;;;;;;;;7.96;90.97;99767.72;4871622;29;19935;-83
2022/12/30 10:43:42;;;;;;;;;;;;;;;7.98;90.39;99771.06;4886584;28;20028;-82
2022/12/30 10:46:12;;;;;;;;;;;;;;;8.02;90.50;99761.09;4897373;29;19945;-83
2022/12/30 10:48:52;;;;;;;;;;;;;;;8.02;90.54;99751.34;4886862;29;20642;-82
2022/12/30 10:51:18;;;;;;;;;;;;;;;8.03;90.10;99747.72;4890397;29;19931;-82
2022/12/30 10:53:46;;;;;;;;;;;;;;;8.08;90.23;99744.72;4922503;29;19927;-82
2022/12/30 10:56:22;;;;;;;;;;;;;;;8.10;90.31;99732.22;4891261;29;19958;-83
2022/12/30 10:58:49;;;;;;;;;;;;;;;8.15;90.18;99739.81;4844891;29;20009;-83
2022/12/30 11:01:24;;;;;;;;;;;;;;;8.17;89.65;99727.31;4894021;29;19974;-83
2022/12/30 11:03:51;;;;;;;;;;;;;;;8.21;89.24;99726.91;4880362;29;19923;-82
2022/12/30 11:06:20;;;;;;;;;;;;;;;8.23;89.03;99718.88;4919351;29;19927;-82
2022/12/30 11:08:50;;;;;;;;;;;;;;;8.27;88.88;99707.91;4895529;29;19927;-80
2022/12/30 11:11:17;;;;;;;;;;;;;;;8.32;88.84;99694.31;4902122;29;20551;-80
2022/12/30 11:16:39;;;;;;;;;;;;;;;8.40;88.46;99691.91;4872763;29;19930;-80
2022/12/30 11:19:05;;;;;;;;;;;;;;;8.40;88.02;99696.38;4908130;29;19930;-80
2022/12/30 11:21:38;;;;;;;;;;;;;;;8.50;89.74;99688.50;4875114;29;19949;-80
2022/12/30 11:24:04;;;;;;;;;;;;;;;8.51;87.74;99683.09;4905765;29;19923;-81
2022/12/30 11:26:32;;;;;;;;;;;;;;;8.55;87.44;99681.88;4870765;29;19923;-81
2022/12/30 11:29:14;;;;;;;;;;;;;;;8.56;87.30;99677.44;4905974;29;19927;-81
2022/12/30 11:31:41;;;;;;;;;;;;;;;8.55;87.21;99684.53;4890211;29;19931;-81
2022/12/30 11:34:16;;;;;;;;;;;;;;;8.55;87.03;99692.47;4904602;29;20026;-80
2022/12/30 11:36:46;;;;;;;;;;;;;;;8.56;87.28;99690.66;4867506;29;19935;-81
2022/12/30 11:39:22;;;;;;;;;;;;;;;8.56;87.18;99695.94;4883105;29;19927;-81
2022/12/30 11:41:59;;;;;;;;;;;;;;;8.57;86.73;99698.44;4890127;29;19947;-81
2022/12/30 11:44:28;;;;;;;;;;;;;;;8.58;86.85;99694.03;4852777;29;20013;-81
2022/12/30 11:46:55;;;;;;;;;;;;;;;8.57;86.46;99700.25;4887530;29;19923;-81
2022/12/30 11:49:29;;;;;;;;;;;;;;;8.58;86.29;99694.03;4914827;29;19923;-81
2022/12/30 11:52:19;;;;;;;;;;;;;;;8.58;86.58;99680.78;4877285;29;19929;-80
2022/12/30 11:54:52;;;;;;;;;;;;;;;8.53;86.35;99686.47;4872078;29;19930;-80
2022/12/30 11:57:20;;;;;;;;;;;;;;;8.53;86.52;99677.69;4893085;29;20371;-81
2022/12/30 11:59:48;;;;;;;;;;;;;;;8.51;86.36;99669.03;4907069;29;19959;-79
2022/12/30 12:02:16;;;;;;;;;;;;;;;8.50;86.47;99662.91;4916447;29;19924;-79
2022/12/30 12:04:43;;;;;;;;;;;;;;;8.50;86.50;99660.25;4916808;29;19931;-80
2022/12/30 12:07:16;;;;;;;;;;;;;;;8.50;86.18;99643.50;4901711;29;19923;-80
2022/12/30 12:09:46;;;;;;;;;;;;;;;8.48;86.46;99627.78;4892406;29;19957;-79
2022/12/30 12:12:16;;;;;;;;;;;;;;;8.47;86.44;99615.50;4895991;29;19930;-79
2022/12/30 12:14:53;;;;;;;;;;;;;;;8.47;86.71;99613.72;4890412;29;19927;-80
2022/12/30 12:17:29;;;;;;;;;;;;;;;8.46;86.72;99609.38;4852232;29;19927;-79
2022/12/30 12:19:57;;;;;;;;;;;;;;;8.45;86.92;99613.00;4918879;29;20276;-80
2022/12/30 12:22:34;;;;;;;;;;;;;;;8.46;87.16;99608.53;4905317;29;20382;-80
2022/12/30 12:25:13;;;;;;;;;;;;;;;8.43;87.35;99603.50;4871226;29;19924;-80
2022/12/30 12:27:40;;;;;;;;;;;;;;;8.43;87.05;99598.22;4874116;29;19934;-79
2022/12/30 12:30:12;;;;;;;;;;;;;;;8.42;87.05;99592.09;4901563;29;20259;-79
2022/12/30 12:32:45;;;;;;;;;;;;;;;8.42;87.00;99589.44;4869619;29;19970;-80
2022/12/30 12:35:14;;;;;;;;;;;;;;;8.40;87.19;99591.38;4921330;29;20446;-80
2022/12/30 12:37:44;;;;;;;;;;;;;;;8.39;87.50;99589.69;4892297;29;20372;-80
2022/12/30 12:40:30;;;;;;;;;;;;;;;8.38;87.58;99587.97;4902847;29;19929;-80
2022/12/30 12:42:59;;;;;;;;;;;;;;;8.38;87.49;99580.03;4828508;29;19943;-79
2022/12/30 12:45:42;;;;;;;;;;;;;;;8.39;87.71;99594.97;4913627;29;19923;-79
2022/12/30 12:48:20;;;;;;;;;;;;;;;8.38;87.60;99593.28;4903386;29;19986;-83
2022/12/30 12:51:02;;;;;;;;;;;;;;;8.38;87.80;99595.91;4888532;29;19923;-80
2022/12/30 12:53:32;;;;;;;;;;;;;;;8.37;87.64;99594.25;4893453;29;19990;-81
2022/12/30 12:56:02;;;;;;;;;;;;;;;8.37;87.72;99596.91;4912321;29;19931;-81
2022/12/30 12:58:33;;;;;;;;;;;;;;;8.39;87.46;99583.53;4867674;29;19923;-81
2022/12/30 13:01:15;;;;;;;;;;;;;;;8.39;87.66;99580.88;4862080;29;19923;-81
2022/12/30 13:04:02;;;;;;;;;;;;;;;8.38;87.76;99564.16;4887395;29;19934;-81
2022/12/30 13:06:32;;;;;;;;;;;;;;;8.39;87.65;99551.78;4892820;29;19923;-80
2022/12/30 13:09:11;;;;;;;;;;;;;;;8.36;87.74;99531.69;4891639;29;19978;-81
2022/12/30 13:11:37;;;;;;;;;;;;;;;8.37;87.62;99530.75;4869610;29;20287;-79
2022/12/30 13:14:23;;;;;;;;;;;;;;;8.35;87.69;99521.28;4905777;29;19930;-81
2022/12/30 13:16:51;;;;;;;;;;;;;;;8.35;88.12;99519.44;4856198;29;19927;-82
2022/12/30 13:19:18;;;;;;;;;;;;;;;8.33;88.14;99513.44;4908539;29;19923;-83
2022/12/30 13:21:46;;;;;;;;;;;;;;;8.33;88.31;99515.25;4891183;29;19946;-83
2022/12/30 13:24:18;;;;;;;;;;;;;;;8.32;88.43;99505.63;4876208;29;20030;-83
2022/12/30 13:26:45;;;;;;;;;;;;;;;8.32;88.41;99511.78;4900998;29;19954;-83
2022/12/30 13:29:12;;;;;;;;;;;;;;;8.31;88.39;99507.44;4913526;29;19924;-83
2022/12/30 13:31:38;;;;;;;;;;;;;;;8.32;88.18;99505.63;4886166;29;19982;-82
2022/12/30 13:34:19;;;;;;;;;;;;;;;8.30;88.48;99484.63;4900418;29;20049;-82
2022/12/30 13:36:48;;;;;;;;;;;;;;;8.31;88.63;99488.09;4865648;29;20029;-82
2022/12/30 13:39:35;;;;;;;;;;;;;;;8.31;88.71;99491.56;4896389;29;19923;-83
2022/12/30 13:42:08;;;;;;;;;;;;;;;8.32;88.96;99490.63;4808238;29;19927;-82
2022/12/30 13:44:35;;;;;;;;;;;;;;;8.32;88.93;99474.75;4905955;29;19927;-82
2022/12/30 13:47:02;;;;;;;;;;;;;;;8.32;88.74;99458.88;4887335;29;19923;-83
2022/12/30 13:49:30;;;;;;;;;;;;;;;8.32;88.77;99466.81;4890267;29;19974;-83
2022/12/30 13:52:02;;;;;;;;;;;;;;;8.31;88.64;99454.53;4879898;29;20340;-82
2022/12/30 13:54:30;;;;;;;;;;;;;;;8.30;88.74;99447.56;4890718;29;19928;-83
2022/12/30 13:56:59;;;;;;;;;;;;;;;8.31;88.59;99437.81;4918699;29;19923;-82
2022/12/30 13:59:32;;;;;;;;;;;;;;;8.31;88.70;99446.59;4906505;29;19935;-82
2022/12/30 14:02:17;;;;;;;;;;;;;;;8.30;88.75;99450.22;4917875;28;19927;-83